sensor_id;sensor_type;location;lat;lon;timestamp;temperature;humidity
15103;DHT22;7652;53.584;9.998;2023-10-31T00:00:07;12.40;99.90
15103;DHT22;7652;53.584;9.998;2023-10-31T00:03:30;12.50;99.90
15103;DHT22;7652;53.584;9.998;2023-10-31T00:06:53;12.50;99.90
15103;DHT22;7652;53.584;9.998;2023-10-31T00:10:14;12.40;99.90
15103;DHT22;7652;53.584;9.998;2023-10-31T00:13:36;12.50;99.90
15103;DHT22;7652;53.584;9.998;2023-10-31T00:16:58;12.50;99.90
15103;DHT22;7652;53.584;9.998;2023-10-31T00:20:19;12.50;99.90
15103;DHT22;7652;53.584;9.998;2023-10-31T00:23:46;12.50;99.90
15103;DHT22;7652;53.584;9.998;2023-10-31T00:27:08;12.50;99.90
15103;DHT22;7652;53.584;9.998;2023-10-31T00:30:29;12.50;99.90
15103;DHT22;7652;53.584;9.998;2023-10-31T00:33:50;12.50;99.90
15103;DHT22;7652;53.584;9.998;2023-10-31T00:37:12;12.50;99.90
15103;DHT22;7652;53.584;9.998;2023-10-31T00:40:35;12.40;99.90
15103;DHT22;7652;53.584;9.998;2023-10-31T00:43:56;12.50;99.90
15103;DHT22;7652;53.584;9.998;2023-10-31T00:47:17;12.50;99.90
15103;DHT22;7652;53.584;9.998;2023-10-31T00:50:39;12.50;99.90
15103;DHT22;7652;53.584;9.998;2023-10-31T00:54:00;12.50;99.90
15103;DHT22;7652;53.584;9.998;2023-10-31T00:57:23;12.60;99.90
15103;DHT22;7652;53.584;9.998;2023-10-31T01:00:45;12.50;99.90
15103;DHT22;7652;53.584;9.998;2023-10-31T01:04:06;12.60;99.90
15103;DHT22;7652;53.584;9.998;2023-10-31T01:07:28;12.50;99.90
15103;DHT22;7652;53.584;9.998;2023-10-31T01:10:50;12.60;99.90
15103;DHT22;7652;53.584;9.998;2023-10-31T01:14:12;12.60;99.90
15103;DHT22;7652;53.584;9.998;2023-10-31T01:17:34;12.60;99.90
15103;DHT22;7652;53.584;9.998;2023-10-31T01:20:56;12.60;99.90
15103;DHT22;7652;53.584;9.998;2023-10-31T01:24:17;12.60;99.90
15103;DHT22;7652;53.584;9.998;2023-10-31T01:27:38;12.50;99.90
15103;DHT22;7652;53.584;9.998;2023-10-31T01:31:03;12.60;99.90
15103;DHT22;7652;53.584;9.998;2023-10-31T01:34:25;12.60;99.90
15103;DHT22;7652;53.584;9.998;2023-10-31T01:37:46;12.50;99.90
15103;DHT22;7652;53.584;9.998;2023-10-31T01:41:08;12.50;99.90
15103;DHT22;7652;53.584;9.998;2023-10-31T01:44:29;12.50;99.90
15103;DHT22;7652;53.584;9.998;2023-10-31T01:47:52;12.60;99.90
15103;DHT22;7652;53.584;9.998;2023-10-31T01:51:14;12.60;99.90
15103;DHT22;7652;53.584;9.998;2023-10-31T01:54:36;12.70;99.90
15103;DHT22;7652;53.584;9.998;2023-10-31T01:57:58;12.70;99.90
15103;DHT22;7652;53.584;9.998;2023-10-31T02:01:20;12.70;99.90
15103;DHT22;7652;53.584;9.998;2023-10-31T02:04:44;12.70;99.90
15103;DHT22;7652;53.584;9.998;2023-10-31T02:08:06;12.70;99.90
15103;DHT22;7652;53.584;9.998;2023-10-31T02:11:28;12.70;99.90
15103;DHT22;7652;53.584;9.998;2023-10-31T02:14:50;12.60;99.90
15103;DHT22;7652;53.584;9.998;2023-10-31T02:18:12;12.60;99.90
15103;DHT22;7652;53.584;9.998;2023-10-31T02:21:41;12.60;99.90
15103;DHT22;7652;53.584;9.998;2023-10-31T02:25:03;12.50;99.90
15103;DHT22;7652;53.584;9.998;2023-10-31T02:28:37;12.60;99.90
15103;DHT22;7652;53.584;9.998;2023-10-31T02:31:59;12.50;99.90
15103;DHT22;7652;53.584;9.998;2023-10-31T02:35:21;12.50;99.90
15103;DHT22;7652;53.584;9.998;2023-10-31T02:38:44;12.50;99.90
15103;DHT22;7652;53.584;9.998;2023-10-31T02:42:06;12.40;99.90
15103;DHT22;7652;53.584;9.998;2023-10-31T02:45:27;12.50;99.90
15103;DHT22;7652;53.584;9.998;2023-10-31T02:48:49;12.50;99.90
15103;DHT22;7652;53.584;9.998;2023-10-31T02:52:10;12.50;99.90
15103;DHT22;7652;53.584;9.998;2023-10-31T02:55:33;12.50;99.90
15103;DHT22;7652;53.584;9.998;2023-10-31T02:58:55;12.60;99.90
15103;DHT22;7652;53.584;9.998;2023-10-31T03:02:17;12.60;99.90
15103;DHT22;7652;53.584;9.998;2023-10-31T03:05:38;12.50;99.90
15103;DHT22;7652;53.584;9.998;2023-10-31T03:09:00;12.50;99.90
15103;DHT22;7652;53.584;9.998;2023-10-31T03:12:22;12.50;99.90
15103;DHT22;7652;53.584;9.998;2023-10-31T03:15:44;12.60;99.90
15103;DHT22;7652;53.584;9.998;2023-10-31T03:19:07;12.60;99.90
15103;DHT22;7652;53.584;9.998;2023-10-31T03:22:28;12.70;99.90
15103;DHT22;7652;53.584;9.998;2023-10-31T03:25:50;12.60;99.90
15103;DHT22;7652;53.584;9.998;2023-10-31T03:29:13;12.60;99.90
15103;DHT22;7652;53.584;9.998;2023-10-31T03:32:34;12.50;99.90
15103;DHT22;7652;53.584;9.998;2023-10-31T03:35:56;12.50;99.90
15103;DHT22;7652;53.584;9.998;2023-10-31T03:39:18;12.60;99.90
15103;DHT22;7652;53.584;9.998;2023-10-31T03:42:39;12.50;99.90
15103;DHT22;7652;53.584;9.998;2023-10-31T03:46:03;12.60;99.90
15103;DHT22;7652;53.584;9.998;2023-10-31T03:49:25;12.60;99.90
15103;DHT22;7652;53.584;9.998;2023-10-31T03:52:47;12.70;99.90
15103;DHT22;7652;53.584;9.998;2023-10-31T03:56:08;12.60;99.90
15103;DHT22;7652;53.584;9.998;2023-10-31T03:59:30;12.50;99.90
15103;DHT22;7652;53.584;9.998;2023-10-31T04:02:52;12.60;99.90
15103;DHT22;7652;53.584;9.998;2023-10-31T04:06:14;12.60;99.90
15103;DHT22;7652;53.584;9.998;2023-10-31T04:09:35;12.70;99.90
15103;DHT22;7652;53.584;9.998;2023-10-31T04:12:57;12.60;99.90
15103;DHT22;7652;53.584;9.998;2023-10-31T04:16:18;12.60;99.90
15103;DHT22;7652;53.584;9.998;2023-10-31T04:19:41;12.60;99.90
15103;DHT22;7652;53.584;9.998;2023-10-31T04:23:03;12.70;99.90
15103;DHT22;7652;53.584;9.998;2023-10-31T04:26:25;12.80;99.90
15103;DHT22;7652;53.584;9.998;2023-10-31T04:29:47;12.70;99.90
15103;DHT22;7652;53.584;9.998;2023-10-31T04:33:08;12.80;99.90
15103;DHT22;7652;53.584;9.998;2023-10-31T04:36:31;12.80;99.90
15103;DHT22;7652;53.584;9.998;2023-10-31T04:39:52;12.90;99.90
15103;DHT22;7652;53.584;9.998;2023-10-31T04:43:13;12.90;99.90
15103;DHT22;7652;53.584;9.998;2023-10-31T04:46:35;12.90;99.90
15103;DHT22;7652;53.584;9.998;2023-10-31T04:49:56;13.00;99.90
15103;DHT22;7652;53.584;9.998;2023-10-31T04:53:19;13.00;99.90
15103;DHT22;7652;53.584;9.998;2023-10-31T04:56:41;13.10;99.90
15103;DHT22;7652;53.584;9.998;2023-10-31T05:00:03;13.10;99.90
15103;DHT22;7652;53.584;9.998;2023-10-31T05:03:26;13.20;99.90
15103;DHT22;7652;53.584;9.998;2023-10-31T05:06:48;13.10;99.90
15103;DHT22;7652;53.584;9.998;2023-10-31T05:10:11;13.20;99.90
15103;DHT22;7652;53.584;9.998;2023-10-31T05:13:33;13.20;99.90
15103;DHT22;7652;53.584;9.998;2023-10-31T05:16:54;13.20;99.90
15103;DHT22;7652;53.584;9.998;2023-10-31T05:20:15;13.20;99.90
15103;DHT22;7652;53.584;9.998;2023-10-31T05:23:37;13.20;99.90
15103;DHT22;7652;53.584;9.998;2023-10-31T05:26:59;13.20;99.90
15103;DHT22;7652;53.584;9.998;2023-10-31T05:30:21;13.20;99.90
15103;DHT22;7652;53.584;9.998;2023-10-31T05:33:42;13.20;99.90
15103;DHT22;7652;53.584;9.998;2023-10-31T05:37:04;13.30;99.90
15103;DHT22;7652;53.584;9.998;2023-10-31T05:40:26;13.30;99.90
15103;DHT22;7652;53.584;9.998;2023-10-31T05:43:50;13.30;99.90
15103;DHT22;7652;53.584;9.998;2023-10-31T05:47:12;13.30;99.90
15103;DHT22;7652;53.584;9.998;2023-10-31T05:50:34;13.40;99.90
15103;DHT22;7652;53.584;9.998;2023-10-31T05:53:55;13.40;99.90
15103;DHT22;7652;53.584;9.998;2023-10-31T05:57:17;13.30;99.90
15103;DHT22;7652;53.584;9.998;2023-10-31T06:00:40;13.30;99.90
15103;DHT22;7652;53.584;9.998;2023-10-31T06:04:01;13.40;99.90
15103;DHT22;7652;53.584;9.998;2023-10-31T06:07:22;13.40;99.90
15103;DHT22;7652;53.584;9.998;2023-10-31T06:10:44;13.30;99.90
15103;DHT22;7652;53.584;9.998;2023-10-31T06:14:06;13.30;99.90
15103;DHT22;7652;53.584;9.998;2023-10-31T06:17:29;13.30;99.90
15103;DHT22;7652;53.584;9.998;2023-10-31T06:20:54;13.20;99.90
15103;DHT22;7652;53.584;9.998;2023-10-31T06:24:15;13.20;99.90
15103;DHT22;7652;53.584;9.998;2023-10-31T06:27:37;13.30;99.90
15103;DHT22;7652;53.584;9.998;2023-10-31T06:30:58;13.30;99.90
15103;DHT22;7652;53.584;9.998;2023-10-31T06:34:21;13.30;99.90
15103;DHT22;7652;53.584;9.998;2023-10-31T06:37:42;13.30;99.90
15103;DHT22;7652;53.584;9.998;2023-10-31T06:41:04;13.30;99.90
15103;DHT22;7652;53.584;9.998;2023-10-31T06:44:26;13.30;99.90
15103;DHT22;7652;53.584;9.998;2023-10-31T06:47:48;13.30;99.90
15103;DHT22;7652;53.584;9.998;2023-10-31T06:51:11;13.30;99.90
15103;DHT22;7652;53.584;9.998;2023-10-31T06:54:32;13.30;99.90
15103;DHT22;7652;53.584;9.998;2023-10-31T06:57:55;13.30;99.90
15103;DHT22;7652;53.584;9.998;2023-10-31T07:01:16;13.30;99.90
15103;DHT22;7652;53.584;9.998;2023-10-31T07:04:40;13.30;99.90
15103;DHT22;7652;53.584;9.998;2023-10-31T07:08:03;13.30;99.90
15103;DHT22;7652;53.584;9.998;2023-10-31T07:11:25;13.20;99.90
15103;DHT22;7652;53.584;9.998;2023-10-31T07:14:46;13.20;99.90
15103;DHT22;7652;53.584;9.998;2023-10-31T07:18:08;13.20;99.90
15103;DHT22;7652;53.584;9.998;2023-10-31T07:21:29;13.10;99.90
15103;DHT22;7652;53.584;9.998;2023-10-31T07:24:53;13.10;99.90
15103;DHT22;7652;53.584;9.998;2023-10-31T07:28:15;13.00;99.90
15103;DHT22;7652;53.584;9.998;2023-10-31T07:31:37;13.00;99.90
15103;DHT22;7652;53.584;9.998;2023-10-31T07:34:59;12.90;99.90
15103;DHT22;7652;53.584;9.998;2023-10-31T07:38:21;12.90;99.90
15103;DHT22;7652;53.584;9.998;2023-10-31T07:41:43;12.90;99.90
15103;DHT22;7652;53.584;9.998;2023-10-31T07:45:06;12.90;99.90
15103;DHT22;7652;53.584;9.998;2023-10-31T07:48:28;12.80;99.90
15103;DHT22;7652;53.584;9.998;2023-10-31T07:51:49;12.70;99.90
15103;DHT22;7652;53.584;9.998;2023-10-31T07:55:12;12.50;99.90
15103;DHT22;7652;53.584;9.998;2023-10-31T07:58:36;12.30;99.90
15103;DHT22;7652;53.584;9.998;2023-10-31T08:01:57;12.30;99.90
15103;DHT22;7652;53.584;9.998;2023-10-31T08:05:19;12.20;99.90
15103;DHT22;7652;53.584;9.998;2023-10-31T08:08:40;12.00;99.90
15103;DHT22;7652;53.584;9.998;2023-10-31T08:12:02;12.00;99.90
15103;DHT22;7652;53.584;9.998;2023-10-31T08:15:25;11.90;99.90
15103;DHT22;7652;53.584;9.998;2023-10-31T08:18:46;11.80;99.90
15103;DHT22;7652;53.584;9.998;2023-10-31T08:22:08;11.80;99.90
15103;DHT22;7652;53.584;9.998;2023-10-31T08:25:30;11.70;99.90
15103;DHT22;7652;53.584;9.998;2023-10-31T08:28:52;11.70;99.90
15103;DHT22;7652;53.584;9.998;2023-10-31T08:32:14;11.70;99.90
15103;DHT22;7652;53.584;9.998;2023-10-31T08:35:36;11.70;99.90
15103;DHT22;7652;53.584;9.998;2023-10-31T08:38:58;11.70;99.90
15103;DHT22;7652;53.584;9.998;2023-10-31T08:42:19;11.70;99.90
15103;DHT22;7652;53.584;9.998;2023-10-31T08:45:41;11.70;99.90
15103;DHT22;7652;53.584;9.998;2023-10-31T08:49:04;11.70;99.90
15103;DHT22;7652;53.584;9.998;2023-10-31T08:52:26;11.70;99.90
15103;DHT22;7652;53.584;9.998;2023-10-31T08:55:47;11.80;99.90
15103;DHT22;7652;53.584;9.998;2023-10-31T08:59:08;11.80;99.90
15103;DHT22;7652;53.584;9.998;2023-10-31T09:02:30;11.80;99.90
15103;DHT22;7652;53.584;9.998;2023-10-31T09:05:53;11.80;99.90
15103;DHT22;7652;53.584;9.998;2023-10-31T09:09:15;11.90;99.90
15103;DHT22;7652;53.584;9.998;2023-10-31T09:12:36;11.90;99.90
15103;DHT22;7652;53.584;9.998;2023-10-31T09:15:58;12.00;99.90
15103;DHT22;7652;53.584;9.998;2023-10-31T09:19:20;12.00;99.90
15103;DHT22;7652;53.584;9.998;2023-10-31T09:22:43;12.00;99.90
15103;DHT22;7652;53.584;9.998;2023-10-31T09:26:04;12.00;99.90
15103;DHT22;7652;53.584;9.998;2023-10-31T09:29:26;12.00;99.90
15103;DHT22;7652;53.584;9.998;2023-10-31T09:32:49;12.00;99.90
15103;DHT22;7652;53.584;9.998;2023-10-31T09:36:11;12.00;99.90
15103;DHT22;7652;53.584;9.998;2023-10-31T09:39:35;11.90;99.90
15103;DHT22;7652;53.584;9.998;2023-10-31T09:42:57;11.80;99.90
15103;DHT22;7652;53.584;9.998;2023-10-31T09:46:18;11.70;99.90
15103;DHT22;7652;53.584;9.998;2023-10-31T09:49:39;11.50;99.90
15103;DHT22;7652;53.584;9.998;2023-10-31T09:53:01;11.50;99.90
15103;DHT22;7652;53.584;9.998;2023-10-31T09:56:26;11.50;99.90
15103;DHT22;7652;53.584;9.998;2023-10-31T09:59:54;11.40;99.90
15103;DHT22;7652;53.584;9.998;2023-10-31T10:03:16;11.40;99.90
15103;DHT22;7652;53.584;9.998;2023-10-31T10:06:40;11.30;99.90
15103;DHT22;7652;53.584;9.998;2023-10-31T10:10:04;11.10;99.90
15103;DHT22;7652;53.584;9.998;2023-10-31T10:13:28;11.00;99.90
15103;DHT22;7652;53.584;9.998;2023-10-31T10:16:49;11.00;99.90
15103;DHT22;7652;53.584;9.998;2023-10-31T10:20:12;11.10;99.90
15103;DHT22;7652;53.584;9.998;2023-10-31T10:23:33;11.10;99.90
15103;DHT22;7652;53.584;9.998;2023-10-31T10:26:56;11.00;99.90
15103;DHT22;7652;53.584;9.998;2023-10-31T10:30:19;11.00;99.90
15103;DHT22;7652;53.584;9.998;2023-10-31T10:33:40;11.00;99.90
15103;DHT22;7652;53.584;9.998;2023-10-31T10:37:05;10.90;99.90
15103;DHT22;7652;53.584;9.998;2023-10-31T10:40:27;10.80;99.90
15103;DHT22;7652;53.584;9.998;2023-10-31T10:43:50;10.80;99.90
15103;DHT22;7652;53.584;9.998;2023-10-31T10:47:17;10.90;99.90
15103;DHT22;7652;53.584;9.998;2023-10-31T10:50:42;10.90;99.90
15103;DHT22;7652;53.584;9.998;2023-10-31T10:54:09;10.90;99.90
15103;DHT22;7652;53.584;9.998;2023-10-31T10:57:36;10.90;99.90
15103;DHT22;7652;53.584;9.998;2023-10-31T11:01:00;10.90;99.90
15103;DHT22;7652;53.584;9.998;2023-10-31T11:04:24;10.90;99.90
15103;DHT22;7652;53.584;9.998;2023-10-31T11:07:46;11.00;99.90
15103;DHT22;7652;53.584;9.998;2023-10-31T11:11:08;11.10;99.90
15103;DHT22;7652;53.584;9.998;2023-10-31T11:14:30;11.00;99.90
15103;DHT22;7652;53.584;9.998;2023-10-31T11:17:55;11.00;99.90
15103;DHT22;7652;53.584;9.998;2023-10-31T11:21:18;11.10;99.90
15103;DHT22;7652;53.584;9.998;2023-10-31T11:24:42;11.10;99.90
15103;DHT22;7652;53.584;9.998;2023-10-31T11:28:13;11.10;99.90
15103;DHT22;7652;53.584;9.998;2023-10-31T11:31:37;11.00;99.90
15103;DHT22;7652;53.584;9.998;2023-10-31T11:35:00;11.10;99.90
15103;DHT22;7652;53.584;9.998;2023-10-31T11:38:31;11.20;99.90
15103;DHT22;7652;53.584;9.998;2023-10-31T11:41:55;11.10;99.90
15103;DHT22;7652;53.584;9.998;2023-10-31T11:45:35;11.20;99.90
15103;DHT22;7652;53.584;9.998;2023-10-31T11:48:57;11.30;99.90
15103;DHT22;7652;53.584;9.998;2023-10-31T11:52:20;11.30;99.90
15103;DHT22;7652;53.584;9.998;2023-10-31T11:55:44;11.40;99.90
15103;DHT22;7652;53.584;9.998;2023-10-31T11:59:06;11.50;99.90
15103;DHT22;7652;53.584;9.998;2023-10-31T12:02:29;11.60;99.90
15103;DHT22;7652;53.584;9.998;2023-10-31T12:05:52;11.60;99.90
15103;DHT22;7652;53.584;9.998;2023-10-31T12:09:14;11.60;99.90
15103;DHT22;7652;53.584;9.998;2023-10-31T12:12:37;11.70;99.90
15103;DHT22;7652;53.584;9.998;2023-10-31T12:15:58;11.90;99.90
15103;DHT22;7652;53.584;9.998;2023-10-31T12:19:21;12.20;99.90
15103;DHT22;7652;53.584;9.998;2023-10-31T12:22:43;12.40;99.90
15103;DHT22;7652;53.584;9.998;2023-10-31T12:26:05;12.50;99.90
15103;DHT22;7652;53.584;9.998;2023-10-31T12:29:28;12.90;99.90
15103;DHT22;7652;53.584;9.998;2023-10-31T12:32:54;13.10;99.90
15103;DHT22;7652;53.584;9.998;2023-10-31T12:36:16;12.80;99.90
15103;DHT22;7652;53.584;9.998;2023-10-31T12:39:37;12.70;99.90
15103;DHT22;7652;53.584;9.998;2023-10-31T12:43:00;12.50;99.90
15103;DHT22;7652;53.584;9.998;2023-10-31T12:46:27;12.60;99.90
15103;DHT22;7652;53.584;9.998;2023-10-31T12:50:07;12.60;99.90
15103;DHT22;7652;53.584;9.998;2023-10-31T12:53:31;12.60;99.90
15103;DHT22;7652;53.584;9.998;2023-10-31T12:56:53;12.60;99.90
15103;DHT22;7652;53.584;9.998;2023-10-31T13:00:16;12.60;99.90
15103;DHT22;7652;53.584;9.998;2023-10-31T13:03:51;12.70;99.90
15103;DHT22;7652;53.584;9.998;2023-10-31T13:07:14;12.70;99.90
15103;DHT22;7652;53.584;9.998;2023-10-31T13:10:36;12.60;99.90
15103;DHT22;7652;53.584;9.998;2023-10-31T13:13:57;12.30;99.90
15103;DHT22;7652;53.584;9.998;2023-10-31T13:17:19;12.30;99.90
15103;DHT22;7652;53.584;9.998;2023-10-31T13:20:41;12.30;99.90
15103;DHT22;7652;53.584;9.998;2023-10-31T13:24:04;12.20;99.90
15103;DHT22;7652;53.584;9.998;2023-10-31T13:27:25;12.30;99.90
15103;DHT22;7652;53.584;9.998;2023-10-31T13:30:47;12.20;99.90
15103;DHT22;7652;53.584;9.998;2023-10-31T13:34:09;12.20;99.90
15103;DHT22;7652;53.584;9.998;2023-10-31T13:37:32;12.20;99.90
15103;DHT22;7652;53.584;9.998;2023-10-31T13:40:55;12.00;99.90
15103;DHT22;7652;53.584;9.998;2023-10-31T13:44:16;11.80;99.90
15103;DHT22;7652;53.584;9.998;2023-10-31T13:47:38;11.80;99.90
15103;DHT22;7652;53.584;9.998;2023-10-31T13:50:59;11.60;99.90
15103;DHT22;7652;53.584;9.998;2023-10-31T13:54:23;11.40;99.90
15103;DHT22;7652;53.584;9.998;2023-10-31T13:57:44;11.20;99.90
15103;DHT22;7652;53.584;9.998;2023-10-31T14:01:06;11.00;99.90
15103;DHT22;7652;53.584;9.998;2023-10-31T14:04:27;11.00;99.90
15103;DHT22;7652;53.584;9.998;2023-10-31T14:07:50;10.80;99.90
15103;DHT22;7652;53.584;9.998;2023-10-31T14:11:13;10.70;99.90
15103;DHT22;7652;53.584;9.998;2023-10-31T14:14:35;10.40;99.90
15103;DHT22;7652;53.584;9.998;2023-10-31T14:17:57;10.30;99.90
15103;DHT22;7652;53.584;9.998;2023-10-31T14:21:18;10.20;99.90
15103;DHT22;7652;53.584;9.998;2023-10-31T14:24:40;10.20;99.90
15103;DHT22;7652;53.584;9.998;2023-10-31T14:28:03;10.10;99.90
15103;DHT22;7652;53.584;9.998;2023-10-31T14:31:24;10.20;99.90
15103;DHT22;7652;53.584;9.998;2023-10-31T14:34:46;10.10;99.90
15103;DHT22;7652;53.584;9.998;2023-10-31T14:38:08;10.00;99.90
15103;DHT22;7652;53.584;9.998;2023-10-31T14:41:30;9.90;99.90
15103;DHT22;7652;53.584;9.998;2023-10-31T14:44:56;9.80;99.90
15103;DHT22;7652;53.584;9.998;2023-10-31T14:48:18;9.70;99.90
15103;DHT22;7652;53.584;9.998;2023-10-31T14:51:39;9.80;99.90
15103;DHT22;7652;53.584;9.998;2023-10-31T14:55:02;9.60;99.90
15103;DHT22;7652;53.584;9.998;2023-10-31T14:58:24;9.60;99.90
15103;DHT22;7652;53.584;9.998;2023-10-31T15:01:47;9.60;99.90
15103;DHT22;7652;53.584;9.998;2023-10-31T15:05:09;9.70;99.90
15103;DHT22;7652;53.584;9.998;2023-10-31T15:08:30;9.60;99.90
15103;DHT22;7652;53.584;9.998;2023-10-31T15:11:51;9.50;99.90
15103;DHT22;7652;53.584;9.998;2023-10-31T15:15:13;9.40;99.90
15103;DHT22;7652;53.584;9.998;2023-10-31T15:18:35;9.30;99.90
15103;DHT22;7652;53.584;9.998;2023-10-31T15:21:57;9.20;99.90
15103;DHT22;7652;53.584;9.998;2023-10-31T15:25:18;8.90;99.90
15103;DHT22;7652;53.584;9.998;2023-10-31T15:28:40;8.90;99.90
15103;DHT22;7652;53.584;9.998;2023-10-31T15:32:03;8.80;99.90
15103;DHT22;7652;53.584;9.998;2023-10-31T15:35:27;8.70;99.90
15103;DHT22;7652;53.584;9.998;2023-10-31T15:38:48;8.60;99.90
15103;DHT22;7652;53.584;9.998;2023-10-31T15:42:11;8.60;99.90
15103;DHT22;7652;53.584;9.998;2023-10-31T15:45:32;8.60;99.90
15103;DHT22;7652;53.584;9.998;2023-10-31T15:49:00;8.40;99.90
15103;DHT22;7652;53.584;9.998;2023-10-31T15:52:23;8.30;99.90
15103;DHT22;7652;53.584;9.998;2023-10-31T15:55:45;8.20;99.90
15103;DHT22;7652;53.584;9.998;2023-10-31T15:59:06;8.10;99.90
15103;DHT22;7652;53.584;9.998;2023-10-31T16:02:28;8.00;99.90
15103;DHT22;7652;53.584;9.998;2023-10-31T16:05:50;8.00;99.90
15103;DHT22;7652;53.584;9.998;2023-10-31T16:09:13;7.90;99.90
15103;DHT22;7652;53.584;9.998;2023-10-31T16:12:34;7.90;99.90
15103;DHT22;7652;53.584;9.998;2023-10-31T16:15:55;7.80;99.90
15103;DHT22;7652;53.584;9.998;2023-10-31T16:19:19;7.80;99.90
15103;DHT22;7652;53.584;9.998;2023-10-31T16:22:41;7.60;99.90
15103;DHT22;7652;53.584;9.998;2023-10-31T16:26:04;7.60;99.90
15103;DHT22;7652;53.584;9.998;2023-10-31T16:29:25;7.60;99.90
15103;DHT22;7652;53.584;9.998;2023-10-31T16:32:47;7.50;99.90
15103;DHT22;7652;53.584;9.998;2023-10-31T16:36:10;7.50;99.90
15103;DHT22;7652;53.584;9.998;2023-10-31T16:39:32;7.50;99.90
15103;DHT22;7652;53.584;9.998;2023-10-31T16:42:56;7.50;99.90
15103;DHT22;7652;53.584;9.998;2023-10-31T16:46:17;7.40;99.90
15103;DHT22;7652;53.584;9.998;2023-10-31T16:49:39;7.50;99.90
15103;DHT22;7652;53.584;9.998;2023-10-31T16:53:02;7.50;99.90
15103;DHT22;7652;53.584;9.998;2023-10-31T16:56:24;7.40;99.90
15103;DHT22;7652;53.584;9.998;2023-10-31T16:59:48;7.40;99.90
15103;DHT22;7652;53.584;9.998;2023-10-31T17:03:09;7.30;99.90
15103;DHT22;7652;53.584;9.998;2023-10-31T17:06:35;7.40;99.90
15103;DHT22;7652;53.584;9.998;2023-10-31T17:09:57;7.40;99.90
15103;DHT22;7652;53.584;9.998;2023-10-31T17:13:19;7.30;99.90
15103;DHT22;7652;53.584;9.998;2023-10-31T17:16:42;7.20;99.90
15103;DHT22;7652;53.584;9.998;2023-10-31T17:20:05;7.20;99.90
15103;DHT22;7652;53.584;9.998;2023-10-31T17:23:27;7.30;99.90
15103;DHT22;7652;53.584;9.998;2023-10-31T17:26:50;7.30;99.90
15103;DHT22;7652;53.584;9.998;2023-10-31T17:30:13;7.30;99.90
15103;DHT22;7652;53.584;9.998;2023-10-31T17:33:36;7.30;99.90
15103;DHT22;7652;53.584;9.998;2023-10-31T17:37:00;7.30;99.90
15103;DHT22;7652;53.584;9.998;2023-10-31T17:40:22;7.30;99.90
15103;DHT22;7652;53.584;9.998;2023-10-31T17:43:44;7.30;99.90
15103;DHT22;7652;53.584;9.998;2023-10-31T17:47:06;7.40;99.90
15103;DHT22;7652;53.584;9.998;2023-10-31T17:50:29;7.30;99.90
15103;DHT22;7652;53.584;9.998;2023-10-31T17:53:52;7.30;99.90
15103;DHT22;7652;53.584;9.998;2023-10-31T17:57:15;7.30;99.90
15103;DHT22;7652;53.584;9.998;2023-10-31T18:00:39;7.40;99.90
15103;DHT22;7652;53.584;9.998;2023-10-31T18:04:00;7.30;99.90
15103;DHT22;7652;53.584;9.998;2023-10-31T18:07:24;7.30;99.90
15103;DHT22;7652;53.584;9.998;2023-10-31T18:10:45;7.30;99.90
15103;DHT22;7652;53.584;9.998;2023-10-31T18:14:06;7.30;99.90
15103;DHT22;7652;53.584;9.998;2023-10-31T18:17:29;7.30;99.90
15103;DHT22;7652;53.584;9.998;2023-10-31T18:20:50;7.20;99.90
15103;DHT22;7652;53.584;9.998;2023-10-31T18:24:15;7.20;99.90
15103;DHT22;7652;53.584;9.998;2023-10-31T18:27:36;7.10;99.90
15103;DHT22;7652;53.584;9.998;2023-10-31T18:31:00;7.10;99.90
15103;DHT22;7652;53.584;9.998;2023-10-31T18:34:22;7.10;99.90
15103;DHT22;7652;53.584;9.998;2023-10-31T18:37:44;7.10;99.90
15103;DHT22;7652;53.584;9.998;2023-10-31T18:41:07;7.10;99.90
15103;DHT22;7652;53.584;9.998;2023-10-31T18:44:28;7.10;99.90
15103;DHT22;7652;53.584;9.998;2023-10-31T18:48:06;7.00;99.90
15103;DHT22;7652;53.584;9.998;2023-10-31T18:51:27;7.00;99.90
15103;DHT22;7652;53.584;9.998;2023-10-31T18:54:48;7.00;99.90
15103;DHT22;7652;53.584;9.998;2023-10-31T18:58:11;7.00;99.90
15103;DHT22;7652;53.584;9.998;2023-10-31T19:01:33;7.00;99.90
15103;DHT22;7652;53.584;9.998;2023-10-31T19:04:54;7.10;99.90
15103;DHT22;7652;53.584;9.998;2023-10-31T19:08:16;7.10;99.90
15103;DHT22;7652;53.584;9.998;2023-10-31T19:11:37;7.10;99.90
15103;DHT22;7652;53.584;9.998;2023-10-31T19:15:00;7.20;99.90
15103;DHT22;7652;53.584;9.998;2023-10-31T19:18:21;7.20;99.90
15103;DHT22;7652;53.584;9.998;2023-10-31T19:21:44;7.10;99.90
15103;DHT22;7652;53.584;9.998;2023-10-31T19:25:06;7.10;99.90
15103;DHT22;7652;53.584;9.998;2023-10-31T19:28:27;7.10;99.90
15103;DHT22;7652;53.584;9.998;2023-10-31T19:31:50;7.20;99.90
15103;DHT22;7652;53.584;9.998;2023-10-31T19:35:12;7.30;99.90
15103;DHT22;7652;53.584;9.998;2023-10-31T19:38:35;7.30;99.90
15103;DHT22;7652;53.584;9.998;2023-10-31T19:41:57;7.30;99.90
15103;DHT22;7652;53.584;9.998;2023-10-31T19:45:20;7.20;99.90
15103;DHT22;7652;53.584;9.998;2023-10-31T19:48:43;7.20;99.90
15103;DHT22;7652;53.584;9.998;2023-10-31T19:52:05;7.20;99.90
15103;DHT22;7652;53.584;9.998;2023-10-31T19:55:26;7.20;99.90
15103;DHT22;7652;53.584;9.998;2023-10-31T19:58:48;7.10;99.90
15103;DHT22;7652;53.584;9.998;2023-10-31T20:02:10;7.20;99.90
15103;DHT22;7652;53.584;9.998;2023-10-31T20:05:33;7.20;99.90
15103;DHT22;7652;53.584;9.998;2023-10-31T20:08:54;7.20;99.90
15103;DHT22;7652;53.584;9.998;2023-10-31T20:12:15;7.00;99.90
15103;DHT22;7652;53.584;9.998;2023-10-31T20:15:37;7.10;99.90
15103;DHT22;7652;53.584;9.998;2023-10-31T20:18:58;7.10;99.90
15103;DHT22;7652;53.584;9.998;2023-10-31T20:22:21;7.10;99.90
15103;DHT22;7652;53.584;9.998;2023-10-31T20:25:43;7.10;99.90
15103;DHT22;7652;53.584;9.998;2023-10-31T20:29:04;7.20;99.90
15103;DHT22;7652;53.584;9.998;2023-10-31T20:32:26;7.20;99.90
15103;DHT22;7652;53.584;9.998;2023-10-31T20:35:47;7.20;99.90
15103;DHT22;7652;53.584;9.998;2023-10-31T20:39:10;7.30;99.90
15103;DHT22;7652;53.584;9.998;2023-10-31T20:42:34;7.40;99.90
15103;DHT22;7652;53.584;9.998;2023-10-31T20:45:56;7.40;99.90
15103;DHT22;7652;53.584;9.998;2023-10-31T20:49:17;7.30;99.90
15103;DHT22;7652;53.584;9.998;2023-10-31T20:52:39;7.40;99.90
15103;DHT22;7652;53.584;9.998;2023-10-31T20:56:02;7.50;99.90
15103;DHT22;7652;53.584;9.998;2023-10-31T20:59:23;7.50;99.90
15103;DHT22;7652;53.584;9.998;2023-10-31T21:02:45;7.60;99.90
15103;DHT22;7652;53.584;9.998;2023-10-31T21:06:08;7.50;99.90
15103;DHT22;7652;53.584;9.998;2023-10-31T21:09:30;7.50;99.90
15103;DHT22;7652;53.584;9.998;2023-10-31T21:12:53;7.60;99.90
15103;DHT22;7652;53.584;9.998;2023-10-31T21:16:14;7.50;99.90
15103;DHT22;7652;53.584;9.998;2023-10-31T21:19:36;7.40;99.90
15103;DHT22;7652;53.584;9.998;2023-10-31T21:22:57;7.50;99.90
15103;DHT22;7652;53.584;9.998;2023-10-31T21:26:19;7.40;99.90
15103;DHT22;7652;53.584;9.998;2023-10-31T21:29:42;7.50;99.90
15103;DHT22;7652;53.584;9.998;2023-10-31T21:33:03;7.50;99.90
15103;DHT22;7652;53.584;9.998;2023-10-31T21:36:24;7.50;99.90
15103;DHT22;7652;53.584;9.998;2023-10-31T21:39:46;7.60;99.90
15103;DHT22;7652;53.584;9.998;2023-10-31T21:43:08;7.60;99.90
15103;DHT22;7652;53.584;9.998;2023-10-31T21:46:31;7.60;99.90